sensor_id;sensor_type;location;lat;lon;timestamp;pressure;altitude;pressure_sealevel;temperature;humidity
54512;BME280;40419;47.438;19.026;2022-11-15T00:01:14;100312.72;;;4.32;100.00
54512;BME280;40419;47.438;19.026;2022-11-15T00:04:00;100313.66;;;4.41;100.00
54512;BME280;40419;47.438;19.026;2022-11-15T00:06:44;100315.16;;;4.43;100.00
54512;BME280;40419;47.438;19.026;2022-11-15T00:09:28;100315.25;;;4.34;100.00
54512;BME280;40419;47.438;19.026;2022-11-15T00:12:12;100318.47;;;4.37;100.00
54512;BME280;40419;47.438;19.026;2022-11-15T00:14:56;100315.94;;;4.36;100.00
54512;BME280;40419;47.438;19.026;2022-11-15T00:17:42;100316.00;;;4.26;100.00
54512;BME280;40419;47.438;19.026;2022-11-15T00:20:26;100314.63;;;4.22;100.00
54512;BME280;40419;47.438;19.026;2022-11-15T00:23:11;100315.47;;;4.40;100.00
54512;BME280;40419;47.438;19.026;2022-11-15T00:26:00;100309.34;;;4.48;100.00
54512;BME280;40419;47.438;19.026;2022-11-15T00:28:44;100304.59;;;4.42;100.00
54512;BME280;40419;47.438;19.026;2022-11-15T00:31:31;100311.97;;;4.40;100.00
54512;BME280;40419;47.438;19.026;2022-11-15T00:34:17;100304.75;;;4.40;100.00
54512;BME280;40419;47.438;19.026;2022-11-15T00:37:03;100298.56;;;4.40;100.00
54512;BME280;40419;47.438;19.026;2022-11-15T00:39:48;100297.56;;;4.41;100.00
54512;BME280;40419;47.438;19.026;2022-11-15T00:42:31;100297.50;;;4.51;100.00
54512;BME280;40419;47.438;19.026;2022-11-15T00:45:16;100290.72;;;4.47;100.00
54512;BME280;40419;47.438;19.026;2022-11-15T00:47:59;100301.31;;;4.66;100.00
54512;BME280;40419;47.438;19.026;2022-11-15T00:50:44;100297.44;;;4.60;100.00
54512;BME280;40419;47.438;19.026;2022-11-15T00:53:28;100290.28;;;4.51;100.00
54512;BME280;40419;47.438;19.026;2022-11-15T00:56:12;100294.66;;;4.52;100.00
54512;BME280;40419;47.438;19.026;2022-11-15T00:58:56;100285.16;;;4.40;100.00
54512;BME280;40419;47.438;19.026;2022-11-15T01:01:43;100288.16;;;4.55;100.00
54512;BME280;40419;47.438;19.026;2022-11-15T01:04:27;100283.00;;;4.43;100.00
54512;BME280;40419;47.438;19.026;2022-11-15T01:07:12;100284.53;;;4.46;100.00
54512;BME280;40419;47.438;19.026;2022-11-15T01:09:56;100283.78;;;4.54;100.00
54512;BME280;40419;47.438;19.026;2022-11-15T01:12:42;100279.03;;;4.48;100.00
54512;BME280;40419;47.438;19.026;2022-11-15T01:15:29;100266.53;;;4.38;100.00
54512;BME280;40419;47.438;19.026;2022-11-15T01:18:13;100264.38;;;4.42;100.00
54512;BME280;40419;47.438;19.026;2022-11-15T01:20:59;100263.75;;;4.48;100.00
54512;BME280;40419;47.438;19.026;2022-11-15T01:23:43;100253.81;;;4.58;100.00
54512;BME280;40419;47.438;19.026;2022-11-15T01:26:30;100256.19;;;4.61;100.00
54512;BME280;40419;47.438;19.026;2022-11-15T01:29:13;100267.22;;;4.58;100.00
54512;BME280;40419;47.438;19.026;2022-11-15T01:32:00;100265.81;;;4.54;100.00
54512;BME280;40419;47.438;19.026;2022-11-15T01:34:46;100255.09;;;4.54;100.00
54512;BME280;40419;47.438;19.026;2022-11-15T01:37:33;100249.59;;;4.56;100.00
54512;BME280;40419;47.438;19.026;2022-11-15T01:40:17;100251.13;;;4.58;100.00
54512;BME280;40419;47.438;19.026;2022-11-15T01:49:04;100256.19;;;4.61;100.00
54512;BME280;40419;47.438;19.026;2022-11-15T01:51:49;100254.19;;;4.64;100.00
54512;BME280;40419;47.438;19.026;2022-11-15T01:54:37;100245.59;;;4.60;100.00
54512;BME280;40419;47.438;19.026;2022-11-15T01:57:22;100244.81;;;4.68;100.00
54512;BME280;40419;47.438;19.026;2022-11-15T02:00:06;100248.75;;;4.73;100.00
54512;BME280;40419;47.438;19.026;2022-11-15T02:02:54;100241.91;;;4.79;100.00
54512;BME280;40419;47.438;19.026;2022-11-15T02:05:38;100241.38;;;4.75;100.00
54512;BME280;40419;47.438;19.026;2022-11-15T02:08:23;100243.38;;;4.73;100.00
54512;BME280;40419;47.438;19.026;2022-11-15T02:11:08;100236.56;;;4.79;100.00
54512;BME280;40419;47.438;19.026;2022-11-15T02:13:54;100232.13;;;4.70;100.00
54512;BME280;40419;47.438;19.026;2022-11-15T02:20:00;100214.16;;;4.88;100.00
54512;BME280;40419;47.438;19.026;2022-11-15T02:29:28;100214.22;;;4.78;100.00
54512;BME280;40419;47.438;19.026;2022-11-15T02:32:34;100213.78;;;4.83;100.00
54512;BME280;40419;47.438;19.026;2022-11-15T02:38:27;100207.88;;;4.79;100.00
54512;BME280;40419;47.438;19.026;2022-11-15T02:41:43;100211.81;;;4.67;100.00
54512;BME280;40419;47.438;19.026;2022-11-15T02:44:35;100207.72;;;4.81;100.00
54512;BME280;40419;47.438;19.026;2022-11-15T02:47:22;100206.28;;;4.69;100.00
54512;BME280;40419;47.438;19.026;2022-11-15T02:50:10;100219.66;;;4.60;100.00
54512;BME280;40419;47.438;19.026;2022-11-15T02:52:58;100213.88;;;4.55;100.00
54512;BME280;40419;47.438;19.026;2022-11-15T02:55:47;100216.66;;;4.64;100.00
54512;BME280;40419;47.438;19.026;2022-11-15T03:13:27;100206.19;;;4.78;100.00
54512;BME280;40419;47.438;19.026;2022-11-15T03:16:34;100207.66;;;4.73;100.00
54512;BME280;40419;47.438;19.026;2022-11-15T03:22:15;100202.16;;;4.56;100.00
54512;BME280;40419;47.438;19.026;2022-11-15T03:25:04;100199.22;;;4.68;100.00
54512;BME280;40419;47.438;19.026;2022-11-15T03:27:58;100205.63;;;4.67;100.00
54512;BME280;40419;47.438;19.026;2022-11-15T03:30:44;100185.31;;;4.64;100.00
54512;BME280;40419;47.438;19.026;2022-11-15T03:33:36;100192.34;;;4.65;100.00
54512;BME280;40419;47.438;19.026;2022-11-15T03:36:22;100192.13;;;4.58;100.00
54512;BME280;40419;47.438;19.026;2022-11-15T03:39:08;100190.75;;;4.54;100.00
54512;BME280;40419;47.438;19.026;2022-11-15T03:45:16;100176.59;;;4.62;100.00
54512;BME280;40419;47.438;19.026;2022-11-15T03:48:07;100168.69;;;4.60;100.00
54512;BME280;40419;47.438;19.026;2022-11-15T03:50:54;100162.66;;;4.85;100.00
54512;BME280;40419;47.438;19.026;2022-11-15T03:53:42;100148.81;;;4.71;100.00
54512;BME280;40419;47.438;19.026;2022-11-15T03:56:32;100145.38;;;4.61;100.00
54512;BME280;40419;47.438;19.026;2022-11-15T03:59:18;100149.59;;;4.64;100.00
54512;BME280;40419;47.438;19.026;2022-11-15T04:02:02;100146.97;;;4.72;100.00
54512;BME280;40419;47.438;19.026;2022-11-15T04:04:51;100140.97;;;4.78;100.00
54512;BME280;40419;47.438;19.026;2022-11-15T04:07:38;100137.59;;;4.76;100.00
54512;BME280;40419;47.438;19.026;2022-11-15T04:10:21;100140.53;;;4.65;100.00
54512;BME280;40419;47.438;19.026;2022-11-15T04:13:08;100144.44;;;4.70;100.00
54512;BME280;40419;47.438;19.026;2022-11-15T04:15:52;100151.00;;;4.76;100.00
54512;BME280;40419;47.438;19.026;2022-11-15T04:18:41;100150.16;;;4.75;100.00
54512;BME280;40419;47.438;19.026;2022-11-15T04:21:27;100145.66;;;4.76;100.00
54512;BME280;40419;47.438;19.026;2022-11-15T04:24:30;100149.00;;;4.78;100.00
54512;BME280;40419;47.438;19.026;2022-11-15T04:27:14;100149.00;;;4.78;100.00
54512;BME280;40419;47.438;19.026;2022-11-15T04:30:00;100149.63;;;4.72;100.00
54512;BME280;40419;47.438;19.026;2022-11-15T04:32:44;100140.75;;;4.71;100.00
54512;BME280;40419;47.438;19.026;2022-11-15T04:35:33;100140.06;;;4.69;100.00
54512;BME280;40419;47.438;19.026;2022-11-15T04:38:17;100137.06;;;4.72;100.00
54512;BME280;40419;47.438;19.026;2022-11-15T04:41:07;100131.84;;;4.71;100.00
54512;BME280;40419;47.438;19.026;2022-11-15T04:43:51;100129.50;;;4.68;100.00
54512;BME280;40419;47.438;19.026;2022-11-15T04:46:35;100129.88;;;4.73;100.00
54512;BME280;40419;47.438;19.026;2022-11-15T04:49:21;100116.50;;;4.81;100.00
54512;BME280;40419;47.438;19.026;2022-11-15T04:52:08;100123.00;;;4.78;100.00
54512;BME280;40419;47.438;19.026;2022-11-15T04:54:51;100126.88;;;4.76;100.00
54512;BME280;40419;47.438;19.026;2022-11-15T04:57:38;100129.06;;;4.81;100.00
54512;BME280;40419;47.438;19.026;2022-11-15T05:00:22;100115.66;;;4.81;100.00
54512;BME280;40419;47.438;19.026;2022-11-15T05:03:06;100118.50;;;4.79;100.00
54512;BME280;40419;47.438;19.026;2022-11-15T05:06:08;100118.19;;;4.82;100.00
54512;BME280;40419;47.438;19.026;2022-11-15T05:08:53;100121.19;;;4.79;100.00
54512;BME280;40419;47.438;19.026;2022-11-15T05:11:40;100121.94;;;4.89;100.00
54512;BME280;40419;47.438;19.026;2022-11-15T05:14:24;100117.53;;;4.88;100.00
54512;BME280;40419;47.438;19.026;2022-11-15T05:17:08;100128.13;;;4.90;100.00
54512;BME280;40419;47.438;19.026;2022-11-15T05:19:52;100131.84;;;4.97;100.00
54512;BME280;40419;47.438;19.026;2022-11-15T05:22:36;100123.59;;;4.90;100.00
54512;BME280;40419;47.438;19.026;2022-11-15T05:25:22;100130.47;;;4.93;100.00
54512;BME280;40419;47.438;19.026;2022-11-15T05:28:08;100129.69;;;5.01;100.00
54512;BME280;40419;47.438;19.026;2022-11-15T05:30:52;100119.94;;;5.00;100.00
54512;BME280;40419;47.438;19.026;2022-11-15T05:33:38;100126.31;;;4.99;100.00
54512;BME280;40419;47.438;19.026;2022-11-15T05:36:33;100128.53;;;5.03;100.00
54512;BME280;40419;47.438;19.026;2022-11-15T05:39:19;100120.63;;;5.02;100.00
54512;BME280;40419;47.438;19.026;2022-11-15T05:42:11;100116.09;;;5.02;100.00
54512;BME280;40419;47.438;19.026;2022-11-15T05:44:59;100113.31;;;5.12;100.00
54512;BME280;40419;47.438;19.026;2022-11-15T05:47:46;100108.59;;;5.06;100.00
54512;BME280;40419;47.438;19.026;2022-11-15T05:50:31;100110.25;;;5.07;100.00
54512;BME280;40419;47.438;19.026;2022-11-15T05:53:21;100119.31;;;5.06;100.00
54512;BME280;40419;47.438;19.026;2022-11-15T05:56:09;100126.72;;;5.12;100.00
54512;BME280;40419;47.438;19.026;2022-11-15T05:58:55;100117.50;;;5.14;100.00
54512;BME280;40419;47.438;19.026;2022-11-15T06:01:40;100111.28;;;5.14;100.00
54512;BME280;40419;47.438;19.026;2022-11-15T06:04:27;100105.44;;;5.19;100.00
54512;BME280;40419;47.438;19.026;2022-11-15T06:07:13;100101.59;;;5.21;100.00
54512;BME280;40419;47.438;19.026;2022-11-15T06:10:00;100094.88;;;5.17;100.00
54512;BME280;40419;47.438;19.026;2022-11-15T06:12:44;100104.31;;;5.29;100.00
54512;BME280;40419;47.438;19.026;2022-11-15T06:15:28;100104.31;;;5.29;100.00
54512;BME280;40419;47.438;19.026;2022-11-15T06:18:12;100104.50;;;5.36;100.00
54512;BME280;40419;47.438;19.026;2022-11-15T06:20:58;100109.00;;;5.36;100.00
54512;BME280;40419;47.438;19.026;2022-11-15T06:23:47;100109.00;;;5.36;100.00
54512;BME280;40419;47.438;19.026;2022-11-15T06:26:31;100113.06;;;5.40;100.00
54512;BME280;40419;47.438;19.026;2022-11-15T06:29:15;100114.59;;;5.50;100.00
54512;BME280;40419;47.438;19.026;2022-11-15T06:32:01;100107.19;;;5.44;100.00
54512;BME280;40419;47.438;19.026;2022-11-15T06:34:45;100110.56;;;5.46;100.00
54512;BME280;40419;47.438;19.026;2022-11-15T06:37:29;100108.75;;;5.55;100.00
54512;BME280;40419;47.438;19.026;2022-11-15T06:40:16;100116.47;;;5.50;100.00
54512;BME280;40419;47.438;19.026;2022-11-15T06:43:02;100115.59;;;5.49;100.00
54512;BME280;40419;47.438;19.026;2022-11-15T06:45:47;100120.34;;;5.56;100.00
54512;BME280;40419;47.438;19.026;2022-11-15T06:48:38;100121.94;;;5.40;100.00
54512;BME280;40419;47.438;19.026;2022-11-15T06:51:22;100107.19;;;5.44;100.00
54512;BME280;40419;47.438;19.026;2022-11-15T06:54:09;100109.38;;;5.41;100.00
54512;BME280;40419;47.438;19.026;2022-11-15T06:56:57;100118.94;;;5.43;100.00
54512;BME280;40419;47.438;19.026;2022-11-15T06:59:42;100126.00;;;5.44;100.00
54512;BME280;40419;47.438;19.026;2022-11-15T07:02:25;100115.47;;;5.59;100.00
54512;BME280;40419;47.438;19.026;2022-11-15T07:05:10;100114.97;;;5.56;100.00
54512;BME280;40419;47.438;19.026;2022-11-15T07:07:56;100108.41;;;5.58;100.00
54512;BME280;40419;47.438;19.026;2022-11-15T07:10:40;100105.72;;;5.50;100.00
54512;BME280;40419;47.438;19.026;2022-11-15T07:13:31;100105.72;;;5.58;100.00
54512;BME280;40419;47.438;19.026;2022-11-15T07:16:19;100101.22;;;5.67;100.00
54512;BME280;40419;47.438;19.026;2022-11-15T07:19:03;100092.81;;;5.70;100.00
54512;BME280;40419;47.438;19.026;2022-11-15T07:21:47;100088.31;;;5.79;100.00
54512;BME280;40419;47.438;19.026;2022-11-15T07:24:33;100096.03;;;5.74;100.00
54512;BME280;40419;47.438;19.026;2022-11-15T07:27:17;100093.69;;;5.79;100.00
54512;BME280;40419;47.438;19.026;2022-11-15T07:30:04;100086.13;;;5.82;100.00
54512;BME280;40419;47.438;19.026;2022-11-15T07:32:58;100092.69;;;5.88;100.00
54512;BME280;40419;47.438;19.026;2022-11-15T07:35:44;100088.63;;;5.84;100.00
54512;BME280;40419;47.438;19.026;2022-11-15T07:38:33;100091.00;;;5.87;100.00
54512;BME280;40419;47.438;19.026;2022-11-15T07:41:17;100094.53;;;5.96;100.00
54512;BME280;40419;47.438;19.026;2022-11-15T07:44:04;100092.84;;;5.86;100.00
54512;BME280;40419;47.438;19.026;2022-11-15T07:46:48;100093.16;;;5.92;100.00
54512;BME280;40419;47.438;19.026;2022-11-15T07:49:32;100104.09;;;5.82;100.00
54512;BME280;40419;47.438;19.026;2022-11-15T07:52:16;100098.38;;;5.85;100.00
54512;BME280;40419;47.438;19.026;2022-11-15T07:55:00;100096.38;;;5.87;100.00
54512;BME280;40419;47.438;19.026;2022-11-15T07:57:47;100089.16;;;5.96;100.00
54512;BME280;40419;47.438;19.026;2022-11-15T08:00:31;100094.06;;;6.09;100.00
54512;BME280;40419;47.438;19.026;2022-11-15T08:03:16;100082.47;;;6.00;100.00
54512;BME280;40419;47.438;19.026;2022-11-15T08:06:00;100097.22;;;5.96;100.00
54512;BME280;40419;47.438;19.026;2022-11-15T08:08:46;100091.84;;;5.96;100.00
54512;BME280;40419;47.438;19.026;2022-11-15T08:11:31;100084.34;;;5.99;100.00
54512;BME280;40419;47.438;19.026;2022-11-15T08:14:17;100082.81;;;6.13;100.00
54512;BME280;40419;47.438;19.026;2022-11-15T08:17:04;100070.69;;;6.17;100.00
54512;BME280;40419;47.438;19.026;2022-11-15T08:19:52;100059.63;;;6.20;100.00
54512;BME280;40419;47.438;19.026;2022-11-15T08:22:36;100065.34;;;6.09;100.00
54512;BME280;40419;47.438;19.026;2022-11-15T08:25:21;100066.66;;;6.05;100.00
54512;BME280;40419;47.438;19.026;2022-11-15T08:28:06;100057.75;;;5.96;100.00
54512;BME280;40419;47.438;19.026;2022-11-15T08:30:51;100059.75;;;5.94;100.00
54512;BME280;40419;47.438;19.026;2022-11-15T08:33:38;100064.97;;;5.88;100.00
54512;BME280;40419;47.438;19.026;2022-11-15T08:36:24;100056.91;;;5.79;100.00
54512;BME280;40419;47.438;19.026;2022-11-15T08:39:12;100058.44;;;5.74;100.00
54512;BME280;40419;47.438;19.026;2022-11-15T08:41:59;100043.13;;;5.74;100.00
54512;BME280;40419;47.438;19.026;2022-11-15T08:44:42;100048.34;;;5.76;100.00
54512;BME280;40419;47.438;19.026;2022-11-15T08:47:31;100042.94;;;5.84;100.00
54512;BME280;40419;47.438;19.026;2022-11-15T08:50:15;100035.75;;;5.68;100.00
54512;BME280;40419;47.438;19.026;2022-11-15T08:53:06;100034.72;;;5.69;100.00
54512;BME280;40419;47.438;19.026;2022-11-15T08:55:54;100039.28;;;5.77;100.00
54512;BME280;40419;47.438;19.026;2022-11-15T08:58:40;100035.91;;;5.91;100.00
54512;BME280;40419;47.438;19.026;2022-11-15T09:01:28;100034.38;;;5.89;100.00
54512;BME280;40419;47.438;19.026;2022-11-15T09:04:18;100031.88;;;5.79;100.00
54512;BME280;40419;47.438;19.026;2022-11-15T09:07:04;100031.88;;;5.87;100.00
54512;BME280;40419;47.438;19.026;2022-11-15T09:09:51;100016.09;;;6.00;100.00
54512;BME280;40419;47.438;19.026;2022-11-15T09:12:40;100022.16;;;6.19;100.00
54512;BME280;40419;47.438;19.026;2022-11-15T09:15:25;100015.94;;;6.27;100.00
54512;BME280;40419;47.438;19.026;2022-11-15T09:18:08;100022.81;;;6.13;100.00
54512;BME280;40419;47.438;19.026;2022-11-15T09:20:57;100012.38;;;6.26;100.00
54512;BME280;40419;47.438;19.026;2022-11-15T09:23:41;100016.56;;;6.37;100.00
54512;BME280;40419;47.438;19.026;2022-11-15T09:26:25;100017.25;;;6.23;100.00
54512;BME280;40419;47.438;19.026;2022-11-15T09:29:09;100015.78;;;6.12;100.00
54512;BME280;40419;47.438;19.026;2022-11-15T09:31:53;100016.59;;;6.29;100.00
54512;BME280;40419;47.438;19.026;2022-11-15T09:34:39;100011.69;;;6.41;100.00
54512;BME280;40419;47.438;19.026;2022-11-15T09:37:23;100010.38;;;6.28;100.00
54512;BME280;40419;47.438;19.026;2022-11-15T09:40:14;100009.50;;;6.36;100.00
54512;BME280;40419;47.438;19.026;2022-11-15T09:43:03;99997.91;;;6.35;100.00
54512;BME280;40419;47.438;19.026;2022-11-15T09:45:57;100001.44;;;6.36;100.00
54512;BME280;40419;47.438;19.026;2022-11-15T09:49:04;100002.94;;;6.47;100.00
54512;BME280;40419;47.438;19.026;2022-11-15T09:51:49;99997.25;;;6.33;100.00
54512;BME280;40419;47.438;19.026;2022-11-15T09:56:52;100001.09;;;6.31;100.00
54512;BME280;40419;47.438;19.026;2022-11-15T10:05:03;99991.69;;;6.35;100.00
54512;BME280;40419;47.438;19.026;2022-11-15T10:07:44;99991.38;;;6.30;100.00
54512;BME280;40419;47.438;19.026;2022-11-15T10:10:20;99989.31;;;6.40;100.00
54512;BME280;40419;47.438;19.026;2022-11-15T10:12:52;99975.75;;;6.17;100.00
54512;BME280;40419;47.438;19.026;2022-11-15T10:15:21;99978.28;;;6.27;100.00
54512;BME280;40419;47.438;19.026;2022-11-15T10:20:25;99964.16;;;6.25;100.00
54512;BME280;40419;47.438;19.026;2022-11-15T10:22:55;99967.19;;;6.30;100.00
54512;BME280;40419;47.438;19.026;2022-11-15T10:25:30;99962.28;;;6.33;100.00
54512;BME280;40419;47.438;19.026;2022-11-15T10:28:17;99966.78;;;6.49;100.00
54512;BME280;40419;47.438;19.026;2022-11-15T10:30:48;99957.22;;;6.38;100.00
54512;BME280;40419;47.438;19.026;2022-11-15T10:33:24;99953.22;;;6.34;100.00
54512;BME280;40419;47.438;19.026;2022-11-15T10:38:55;99944.09;;;6.44;100.00
54512;BME280;40419;47.438;19.026;2022-11-15T10:46:35;99947.06;;;6.57;100.00
54512;BME280;40419;47.438;19.026;2022-11-15T10:49:14;99939.38;;;6.46;100.00
54512;BME280;40419;47.438;19.026;2022-11-15T10:51:45;99934.28;;;6.59;100.00
54512;BME280;40419;47.438;19.026;2022-11-15T10:54:11;99931.41;;;6.61;100.00
54512;BME280;40419;47.438;19.026;2022-11-15T10:56:41;99927.72;;;6.62;100.00
54512;BME280;40419;47.438;19.026;2022-11-15T10:59:16;99924.69;;;6.56;100.00
54512;BME280;40419;47.438;19.026;2022-11-15T11:01:48;99910.38;;;6.64;100.00
54512;BME280;40419;47.438;19.026;2022-11-15T11:04:14;99912.94;;;6.57;100.00
54512;BME280;40419;47.438;19.026;2022-11-15T11:06:47;99910.88;;;6.68;100.00
54512;BME280;40419;47.438;19.026;2022-11-15T11:09:38;99903.31;;;6.63;100.00
54512;BME280;40419;47.438;19.026;2022-11-15T11:12:06;99906.72;;;6.57;100.00
54512;BME280;40419;47.438;19.026;2022-11-15T11:14:38;99909.09;;;6.52;100.00
54512;BME280;40419;47.438;19.026;2022-11-15T11:17:22;99894.72;;;6.68;100.00
54512;BME280;40419;47.438;19.026;2022-11-15T11:27:40;99891.63;;;6.48;100.00
54512;BME280;40419;47.438;19.026;2022-11-15T11:30:14;99885.81;;;6.36;100.00
54512;BME280;40419;47.438;19.026;2022-11-15T11:43:34;99878.91;;;6.33;100.00
54512;BME280;40419;47.438;19.026;2022-11-15T11:49:12;99875.00;;;6.44;100.00
54512;BME280;40419;47.438;19.026;2022-11-15T11:51:49;99865.09;;;6.45;100.00
54512;BME280;40419;47.438;19.026;2022-11-15T11:57:59;99862.34;;;6.53;100.00
54512;BME280;40419;47.438;19.026;2022-11-15T12:00:20;99852.94;;;6.49;100.00
54512;BME280;40419;47.438;19.026;2022-11-15T12:05:35;99846.84;;;6.55;100.00
54512;BME280;40419;47.438;19.026;2022-11-15T12:11:10;99832.81;;;6.45;100.00
54512;BME280;40419;47.438;19.026;2022-11-15T12:13:42;99833.59;;;6.53;100.00
54512;BME280;40419;47.438;19.026;2022-11-15T12:16:30;99822.81;;;6.53;100.00
54512;BME280;40419;47.438;19.026;2022-11-15T12:18:59;99817.09;;;6.56;100.00
54512;BME280;40419;47.438;19.026;2022-11-15T12:24:48;99815.91;;;6.59;100.00
54512;BME280;40419;47.438;19.026;2022-11-15T12:30:19;99806.03;;;6.51;100.00
54512;BME280;40419;47.438;19.026;2022-11-15T12:38:08;99806.22;;;6.50;100.00
54512;BME280;40419;47.438;19.026;2022-11-15T12:40:38;99803.69;;;6.48;100.00
54512;BME280;40419;47.438;19.026;2022-11-15T12:43:39;99777.50;;;6.19;100.00
54512;BME280;40419;47.438;19.026;2022-11-15T12:57:28;99777.50;;;6.19;100.00
54512;BME280;40419;47.438;19.026;2022-11-15T13:02:44;99783.06;;;6.41;100.00
54512;BME280;40419;47.438;19.026;2022-11-15T13:17:49;99783.06;;;6.41;100.00
54512;BME280;40419;47.438;19.026;2022-11-15T13:35:54;99757.25;;;6.31;100.00
54512;BME280;40419;47.438;19.026;2022-11-15T13:40:57;99748.03;;;6.26;100.00
54512;BME280;40419;47.438;19.026;2022-11-15T13:46:28;99740.88;;;6.18;100.00
54512;BME280;40419;47.438;19.026;2022-11-15T13:59:30;99736.28;;;6.27;100.00
54512;BME280;40419;47.438;19.026;2022-11-15T14:02:01;99726.41;;;6.19;100.00
54512;BME280;40419;47.438;19.026;2022-11-15T14:04:28;99719.81;;;6.21;100.00
54512;BME280;40419;47.438;19.026;2022-11-15T14:07:02;99722.31;;;6.31;100.00
54512;BME280;40419;47.438;19.026;2022-11-15T14:14:50;99718.38;;;6.11;100.00
54512;BME280;40419;47.438;19.026;2022-11-15T14:19:56;99716.53;;;6.11;100.00
54512;BME280;40419;47.438;19.026;2022-11-15T14:22:29;99718.28;;;6.04;100.00
54512;BME280;40419;47.438;19.026;2022-11-15T14:25:18;99701.66;;;5.92;100.00
54512;BME280;40419;47.438;19.026;2022-11-15T14:30:40;99692.22;;;6.05;100.00
54512;BME280;40419;47.438;19.026;2022-11-15T14:38:44;99675.91;;;6.06;100.00
54512;BME280;40419;47.438;19.026;2022-11-15T14:43:44;99669.56;;;5.99;100.00
54512;BME280;40419;47.438;19.026;2022-11-15T14:46:12;99673.75;;;5.93;100.00
54512;BME280;40419;47.438;19.026;2022-11-15T14:48:37;99685.91;;;5.89;100.00
54512;BME280;40419;47.438;19.026;2022-11-15T14:51:08;99678.50;;;5.91;100.00
54512;BME280;40419;47.438;19.026;2022-11-15T14:53:37;99676.16;;;5.88;100.00
54512;BME280;40419;47.438;19.026;2022-11-15T14:56:08;99676.16;;;5.88;100.00
54512;BME280;40419;47.438;19.026;2022-11-15T14:58:36;99664.41;;;5.89;100.00
54512;BME280;40419;47.438;19.026;2022-11-15T15:01:05;99669.59;;;5.91;100.00
54512;BME280;40419;47.438;19.026;2022-11-15T15:03:38;99662.00;;;5.94;100.00
54512;BME280;40419;47.438;19.026;2022-11-15T15:06:03;99665.53;;;5.95;100.00
54512;BME280;40419;47.438;19.026;2022-11-15T15:08:31;99664.19;;;5.99;100.00
54512;BME280;40419;47.438;19.026;2022-11-15T15:10:56;99667.38;;;6.02;100.00
54512;BME280;40419;47.438;19.026;2022-11-15T15:13:24;99652.63;;;5.98;100.00
54512;BME280;40419;47.438;19.026;2022-11-15T15:15:51;99658.00;;;5.98;100.00
54512;BME280;40419;47.438;19.026;2022-11-15T15:18:19;99646.25;;;5.91;100.00
54512;BME280;40419;47.438;19.026;2022-11-15T15:20:56;99644.56;;;5.90;100.00
54512;BME280;40419;47.438;19.026;2022-11-15T15:23:27;99652.63;;;5.98;100.00
54512;BME280;40419;47.438;19.026;2022-11-15T15:25:56;99661.69;;;5.97;100.00
54512;BME280;40419;47.438;19.026;2022-11-15T15:28:22;99660.84;;;5.97;100.00
54512;BME280;40419;47.438;19.026;2022-11-15T15:30:47;99662.38;;;5.91;100.00
54512;BME280;40419;47.438;19.026;2022-11-15T15:33:16;99659.91;;;6.13;100.00
54512;BME280;40419;47.438;19.026;2022-11-15T15:35:47;99663.97;;;6.09;100.00
54512;BME280;40419;47.438;19.026;2022-11-15T15:38:15;99657.88;;;6.15;100.00
54512;BME280;40419;47.438;19.026;2022-11-15T15:40:43;99670.97;;;6.18;100.00
54512;BME280;40419;47.438;19.026;2022-11-15T15:43:11;99662.41;;;6.14;100.00
54512;BME280;40419;47.438;19.026;2022-11-15T15:45:41;99657.03;;;6.14;100.00
54512;BME280;40419;47.438;19.026;2022-11-15T15:48:14;99654.31;;;5.99;100.00
54512;BME280;40419;47.438;19.026;2022-11-15T15:50:40;99652.69;;;6.13;100.00
54512;BME280;40419;47.438;19.026;2022-11-15T15:53:09;99649.28;;;6.19;100.00
54512;BME280;40419;47.438;19.026;2022-11-15T15:55:38;99658.59;;;6.32;100.00
54512;BME280;40419;47.438;19.026;2022-11-15T15:58:04;99642.91;;;6.20;100.00
54512;BME280;40419;47.438;19.026;2022-11-15T16:00:32;99652.16;;;6.18;100.00
54512;BME280;40419;47.438;19.026;2022-11-15T16:03:00;99651.97;;;6.19;100.00
54512;BME280;40419;47.438;19.026;2022-11-15T16:05:28;99648.75;;;6.24;100.00
54512;BME280;40419;47.438;19.026;2022-11-15T16:07:54;99643.22;;;6.17;100.00
54512;BME280;40419;47.438;19.026;2022-11-15T16:10:28;99644.91;;;6.18;100.00
54512;BME280;40419;47.438;19.026;2022-11-15T16:12:55;99647.97;;;6.15;100.00
54512;BME280;40419;47.438;19.026;2022-11-15T16:15:23;99648.09;;;6.22;100.00
54512;BME280;40419;47.438;19.026;2022-11-15T16:22:54;99638.03;;;6.16;100.00
54512;BME280;40419;47.438;19.026;2022-11-15T16:25:20;99637.38;;;6.14;100.00
54512;BME280;40419;47.438;19.026;2022-11-15T16:27:48;99627.63;;;6.13;100.00
54512;BME280;40419;47.438;19.026;2022-11-15T16:30:15;99629.03;;;6.09;100.00
54512;BME280;40419;47.438;19.026;2022-11-15T16:32:46;99627.94;;;6.18;100.00
54512;BME280;40419;47.438;19.026;2022-11-15T16:35:15;99639.59;;;6.10;100.00
54512;BME280;40419;47.438;19.026;2022-11-15T16:37:43;99637.03;;;6.17;100.00
54512;BME280;40419;47.438;19.026;2022-11-15T16:40:46;99625.91;;;6.20;100.00
54512;BME280;40419;47.438;19.026;2022-11-15T16:43:12;99623.59;;;6.17;100.00
54512;BME280;40419;47.438;19.026;2022-11-15T16:45:38;99628.69;;;6.12;100.00
54512;BME280;40419;47.438;19.026;2022-11-15T16:48:04;99628.59;;;6.20;100.00
54512;BME280;40419;47.438;19.026;2022-11-15T16:50:32;99622.13;;;6.29;100.00
54512;BME280;40419;47.438;19.026;2022-11-15T16:53:04;99608.78;;;6.21;100.00
54512;BME280;40419;47.438;19.026;2022-11-15T16:55:31;99616.06;;;6.12;100.00
54512;BME280;40419;47.438;19.026;2022-11-15T16:58:02;99623.22;;;6.20;100.00